createdAt,value
2023-03-12T00:00:14.435Z,29.45
2023-03-12T00:04:14.486Z,29.50
2023-03-12T00:08:14.532Z,29.46
2023-03-12T00:12:14.534Z,29.48
2023-03-12T00:16:14.605Z,29.48
2023-03-12T00:20:14.595Z,29.48
2023-03-12T00:24:14.646Z,29.48
2023-03-12T00:28:14.745Z,29.48
2023-03-12T00:32:14.668Z,29.45
2023-03-12T00:36:14.676Z,29.47
2023-03-12T00:40:14.697Z,29.45
2023-03-12T00:44:14.750Z,29.46
2023-03-12T00:48:14.727Z,29.41
2023-03-12T00:52:14.784Z,29.41
2023-03-12T00:56:14.812Z,29.44
2023-03-12T01:00:14.842Z,29.42
2023-03-12T01:04:14.907Z,29.45
2023-03-12T01:08:14.874Z,29.45
2023-03-12T01:12:15.022Z,29.42
2023-03-12T01:16:14.918Z,29.49
2023-03-12T01:20:14.926Z,29.49
2023-03-12T01:24:14.912Z,29.50
2023-03-12T01:28:14.919Z,29.50
2023-03-12T01:32:15.002Z,29.55
2023-03-12T01:36:15.075Z,29.50
2023-03-12T01:40:14.987Z,29.52
2023-03-12T01:44:15.013Z,29.55
2023-03-12T01:48:15.015Z,29.56
2023-03-12T01:52:15.010Z,29.53
2023-03-12T01:56:15.045Z,29.54
2023-03-12T02:00:15.131Z,29.56
2023-03-12T02:04:15.165Z,29.55
2023-03-12T02:08:15.204Z,29.53
2023-03-12T02:12:15.237Z,29.56
2023-03-12T02:16:15.284Z,29.56
2023-03-12T02:20:15.311Z,29.51
2023-03-12T02:24:15.361Z,29.49
2023-03-12T02:28:15.384Z,29.50
2023-03-12T02:32:15.454Z,29.48
2023-03-12T02:36:15.479Z,29.45
2023-03-12T02:40:15.543Z,29.43
2023-03-12T02:44:15.589Z,29.42
2023-03-12T02:48:15.574Z,29.43
2023-03-12T02:52:15.643Z,29.38
2023-03-12T02:56:15.647Z,29.38
2023-03-12T03:00:15.723Z,29.38
2023-03-12T03:04:15.757Z,29.37
2023-03-12T03:08:15.748Z,29.40
2023-03-12T03:12:15.787Z,29.38
2023-03-12T03:16:15.855Z,29.39
2023-03-12T03:20:15.890Z,29.38
2023-03-12T03:24:15.934Z,29.43
2023-03-12T03:28:15.995Z,29.44
2023-03-12T03:32:16.072Z,29.43
2023-03-12T03:36:16.108Z,29.47
2023-03-12T03:40:16.134Z,29.45
2023-03-12T03:44:16.199Z,29.45
2023-03-12T03:48:16.207Z,29.48
2023-03-12T03:52:16.309Z,29.47
2023-03-12T03:56:16.340Z,29.49
2023-03-12T04:00:16.379Z,29.50
2023-03-12T04:04:16.473Z,29.49
2023-03-12T04:08:16.484Z,29.48
2023-03-12T04:12:16.548Z,29.50
2023-03-12T04:16:16.640Z,29.52
2023-03-12T04:20:16.671Z,29.50
2023-03-12T04:24:16.753Z,29.49
2023-03-12T04:28:16.813Z,29.50
2023-03-12T04:32:16.923Z,29.51
2023-03-12T04:36:16.912Z,29.50
2023-03-12T04:40:16.981Z,29.47
2023-03-12T04:44:17.055Z,29.45
2023-03-12T04:48:17.097Z,29.43
2023-03-12T04:52:17.121Z,29.42
2023-03-12T04:56:17.228Z,29.42
2023-03-12T05:00:17.328Z,29.41
2023-03-12T05:04:17.368Z,29.41
2023-03-12T05:08:17.346Z,29.44
2023-03-12T05:12:17.414Z,29.42
2023-03-12T05:16:17.494Z,29.41
2023-03-12T05:20:17.593Z,29.44
2023-03-12T05:24:17.636Z,29.42
2023-03-12T05:28:17.717Z,29.42
2023-03-12T05:32:17.788Z,29.46
2023-03-12T05:36:17.810Z,29.46
2023-03-12T05:40:17.925Z,29.48
2023-03-12T05:44:17.950Z,29.49
2023-03-12T05:48:18.005Z,29.49
2023-03-12T05:52:18.108Z,29.52
2023-03-12T05:56:18.181Z,29.60
2023-03-12T06:00:18.230Z,29.61
2023-03-12T06:04:18.309Z,29.66
2023-03-12T06:08:18.361Z,29.72
2023-03-12T06:12:18.492Z,29.70
2023-03-12T06:16:18.564Z,29.68
2023-03-12T06:20:18.626Z,29.66
2023-03-12T06:24:18.679Z,29.64
2023-03-12T06:28:18.755Z,29.61
2023-03-12T06:32:18.814Z,29.63
2023-03-12T06:36:18.909Z,29.60
2023-03-12T06:40:18.881Z,29.56
2023-03-12T06:44:18.923Z,29.53
2023-03-12T06:48:18.981Z,29.55
2023-03-12T06:52:19.076Z,29.47
2023-03-12T06:56:19.129Z,29.50
2023-03-12T07:00:19.217Z,29.49
2023-03-12T07:04:19.232Z,29.53
2023-03-12T07:08:19.292Z,29.50
2023-03-12T07:12:19.333Z,29.50
2023-03-12T07:16:19.409Z,29.46
2023-03-12T07:20:19.457Z,29.47
2023-03-12T07:24:19.498Z,29.45
2023-03-12T07:28:19.562Z,29.46
2023-03-12T07:32:19.549Z,29.43
2023-03-12T07:36:19.694Z,29.45
2023-03-12T07:40:19.633Z,29.43
2023-03-12T07:44:19.646Z,29.43
2023-03-12T07:48:19.803Z,29.38
2023-03-12T07:52:19.703Z,29.31
2023-03-12T07:56:19.885Z,29.27
2023-03-12T08:00:19.724Z,29.24
2023-03-12T08:04:19.758Z,29.26
2023-03-12T08:08:19.735Z,29.28
2023-03-12T08:12:19.798Z,29.23
2023-03-12T08:16:19.759Z,29.28
2023-03-12T08:20:19.785Z,29.14
2023-03-12T08:24:19.821Z,29.17
2023-03-12T08:28:19.832Z,29.30
2023-03-12T08:32:20.054Z,29.20
2023-03-12T08:36:22.299Z,29.22
2023-03-12T08:40:20.012Z,29.26
2023-03-12T08:44:20.081Z,29.24
2023-03-12T08:48:20.049Z,29.13
2023-03-12T08:52:20.087Z,29.20
2023-03-12T08:56:20.119Z,29.29
2023-03-12T09:00:20.127Z,29.29
2023-03-12T09:04:20.204Z,29.12
2023-03-12T09:08:20.156Z,29.34
2023-03-12T09:12:20.155Z,29.16
2023-03-12T09:16:20.262Z,29.00
2023-03-12T09:20:20.194Z,29.30
2023-03-12T09:24:20.221Z,29.00
2023-03-12T09:28:20.189Z,28.94
2023-03-12T09:32:20.254Z,28.89
2023-03-12T09:36:20.226Z,28.91
2023-03-12T09:40:20.188Z,28.88
2023-03-12T09:44:20.202Z,28.73
2023-03-12T09:48:20.186Z,28.68
2023-03-12T09:52:20.198Z,28.77
2023-03-12T09:56:20.127Z,28.76
2023-03-12T10:00:20.109Z,28.64
2023-03-12T10:04:20.142Z,28.70
2023-03-12T10:08:25.071Z,28.78
2023-03-12T10:12:21.075Z,28.84
2023-03-12T10:16:20.167Z,28.87
2023-03-12T10:20:20.187Z,28.89
2023-03-12T10:24:20.213Z,28.93
2023-03-12T10:28:20.184Z,28.78
2023-03-12T10:32:20.266Z,28.65
2023-03-12T10:36:20.196Z,28.76
2023-03-12T10:40:20.163Z,28.76
2023-03-12T10:44:20.132Z,28.73
2023-03-12T10:48:20.146Z,28.73
2023-03-12T10:52:20.128Z,28.66
2023-03-12T10:56:20.080Z,28.57
2023-03-12T11:00:20.093Z,28.59
2023-03-12T11:04:20.065Z,28.61
2023-03-12T11:08:20.031Z,28.53
2023-03-12T11:12:20.024Z,28.43
2023-03-12T11:16:20.577Z,28.48
2023-03-12T11:20:20.048Z,28.50
2023-03-12T11:24:20.032Z,28.56
2023-03-12T11:28:20.121Z,28.58
2023-03-12T11:32:20.040Z,28.50
2023-03-12T11:36:20.151Z,28.38
2023-03-12T11:40:20.244Z,28.29
2023-03-12T11:44:20.079Z,28.09
2023-03-12T11:48:20.167Z,27.99
2023-03-12T11:52:20.017Z,27.81
2023-03-12T11:56:19.971Z,27.82
2023-03-12T12:00:19.966Z,28.05
2023-03-12T12:04:19.920Z,28.26
2023-03-12T12:08:19.868Z,28.15
2023-03-12T12:12:19.825Z,28.04
2023-03-12T12:16:19.816Z,27.99
2023-03-12T12:20:19.974Z,27.91
2023-03-12T12:24:20.176Z,28.09
2023-03-12T12:28:20.380Z,28.08
2023-03-12T12:32:20.571Z,28.21
2023-03-12T12:36:20.728Z,28.27
2023-03-12T12:40:20.929Z,28.33
2023-03-12T12:44:21.165Z,28.22
2023-03-12T12:48:21.362Z,28.26
2023-03-12T12:52:21.525Z,28.35
2023-03-12T12:56:21.748Z,28.21
2023-03-12T13:00:21.898Z,27.74
2023-03-12T13:04:22.101Z,27.83
2023-03-12T13:08:22.069Z,27.92
2023-03-12T13:12:22.191Z,28.09
2023-03-12T13:16:22.487Z,27.84
2023-03-12T13:20:22.423Z,27.75
2023-03-12T13:24:22.564Z,28.04
2023-03-12T13:28:22.701Z,28.06
2023-03-12T13:32:22.833Z,28.07
2023-03-12T13:36:22.986Z,28.41
2023-03-12T13:40:23.198Z,28.61
2023-03-12T13:44:23.414Z,28.74
2023-03-12T13:48:23.581Z,28.44
2023-03-12T13:52:23.764Z,28.61
2023-03-12T13:56:23.984Z,28.57
2023-03-12T14:00:24.146Z,28.53
2023-03-12T14:04:24.377Z,28.61
2023-03-12T14:08:24.559Z,28.59
2023-03-12T14:12:24.833Z,28.59
2023-03-12T14:16:25.061Z,28.72
2023-03-12T14:20:25.202Z,28.55
2023-03-12T14:24:25.295Z,27.27
2023-03-12T14:28:25.415Z,25.69
2023-03-12T14:32:25.524Z,25.74
2023-03-12T14:36:25.505Z,24.03
2023-03-12T14:40:25.543Z,24.75
2023-03-12T14:44:25.662Z,25.91
2023-03-12T14:48:25.725Z,26.61
2023-03-12T14:52:25.915Z,27.04
2023-03-12T14:56:25.878Z,27.28
2023-03-12T15:00:25.837Z,27.49
2023-03-12T15:04:25.865Z,27.61
2023-03-12T15:08:25.756Z,27.69
2023-03-12T15:12:25.696Z,27.67
2023-03-12T15:16:25.753Z,27.47
2023-03-12T15:20:25.650Z,27.47
2023-03-12T15:24:25.607Z,27.47
2023-03-12T15:28:25.579Z,27.47
2023-03-12T15:32:25.607Z,27.50
2023-03-12T15:36:25.529Z,27.47
2023-03-12T15:40:25.459Z,27.47
2023-03-12T15:44:25.508Z,27.50
2023-03-12T15:48:25.734Z,27.49
2023-03-12T15:52:25.727Z,28.06
2023-03-12T15:56:25.696Z,28.06
2023-03-12T16:00:25.608Z,28.16
2023-03-12T16:04:25.590Z,28.18
2023-03-12T16:08:25.554Z,28.23
2023-03-12T16:12:25.504Z,28.28
2023-03-12T16:16:25.548Z,28.29
2023-03-12T16:20:25.427Z,28.26
2023-03-12T16:24:25.651Z,28.15
2023-03-12T16:28:25.353Z,28.29
2023-03-12T16:32:25.374Z,28.13
2023-03-12T16:36:25.296Z,28.13
2023-03-12T16:40:33.212Z,28.17
2023-03-12T16:44:26.233Z,28.46
2023-03-12T16:48:25.175Z,28.53
2023-03-12T16:52:25.133Z,28.65
2023-03-12T16:56:25.126Z,28.70
2023-03-12T17:00:25.243Z,28.75
2023-03-12T17:04:25.428Z,28.91
2023-03-12T17:08:25.516Z,28.97
2023-03-12T17:12:25.721Z,29.07
2023-03-12T17:16:26.021Z,29.13
2023-03-12T17:20:25.873Z,29.20
2023-03-12T17:24:25.827Z,29.26
2023-03-12T17:28:25.783Z,29.34
2023-03-12T17:32:25.804Z,29.39
2023-03-12T17:36:25.707Z,29.45
2023-03-12T17:40:25.698Z,29.51
2023-03-12T17:44:25.668Z,29.42
2023-03-12T17:48:25.637Z,29.46
2023-03-12T17:52:25.581Z,29.46
2023-03-12T17:56:25.656Z,29.50
2023-03-12T18:00:25.609Z,29.51
2023-03-12T18:04:25.631Z,29.52
2023-03-12T18:08:25.550Z,29.57
2023-03-12T18:12:25.452Z,29.57
2023-03-12T18:16:25.501Z,29.60
2023-03-12T18:20:37.514Z,29.58
2023-03-12T18:24:26.400Z,29.63
2023-03-12T18:28:25.320Z,29.65
2023-03-12T18:32:25.350Z,29.64
2023-03-12T18:36:25.292Z,29.68
2023-03-12T18:40:25.230Z,29.69
2023-03-12T18:44:25.244Z,29.73
2023-03-12T18:48:25.318Z,29.74
2023-03-12T18:52:25.237Z,29.77
2023-03-12T18:56:25.270Z,29.78
2023-03-12T19:00:25.277Z,29.78
2023-03-12T19:04:25.295Z,29.82
2023-03-12T19:08:25.291Z,29.86
2023-03-12T19:12:25.325Z,29.83
2023-03-12T19:16:25.411Z,29.86
2023-03-12T19:20:25.353Z,29.92
2023-03-12T19:24:25.416Z,29.93
2023-03-12T19:28:25.426Z,29.92
2023-03-12T19:32:33.084Z,29.95
2023-03-12T19:36:26.427Z,29.96
2023-03-12T19:40:25.413Z,29.97
2023-03-12T19:44:25.367Z,29.97
2023-03-12T19:48:25.417Z,30.01
2023-03-12T19:52:25.313Z,30.00
2023-03-12T19:56:25.244Z,29.99
2023-03-12T20:00:25.240Z,29.98
2023-03-12T20:04:25.210Z,29.97
2023-03-12T20:08:25.141Z,29.97
2023-03-12T20:12:25.122Z,29.98
2023-03-12T20:16:25.185Z,29.99
2023-03-12T20:20:25.178Z,30.00
2023-03-12T20:24:25.186Z,29.98
2023-03-12T20:28:25.167Z,30.01
2023-03-12T20:32:25.294Z,30.02
2023-03-12T20:36:25.253Z,30.01
2023-03-12T20:40:25.284Z,30.05
2023-03-12T20:44:25.276Z,30.10
2023-03-12T20:48:25.321Z,30.16
2023-03-12T20:52:25.355Z,30.13
2023-03-12T20:56:25.418Z,30.14
2023-03-12T21:00:25.465Z,30.16
2023-03-12T21:04:25.516Z,30.13
2023-03-12T21:08:25.580Z,30.14
2023-03-12T21:12:25.601Z,30.17
2023-03-12T21:16:25.741Z,30.15
2023-03-12T21:20:25.733Z,30.20
2023-03-12T21:24:25.840Z,30.20
2023-03-12T21:28:25.909Z,30.21
2023-03-12T21:32:26.019Z,30.19
2023-03-12T21:36:26.087Z,30.19
2023-03-12T21:40:26.129Z,30.15
2023-03-12T21:44:26.237Z,30.15
2023-03-12T21:48:26.308Z,30.14
2023-03-12T21:52:26.349Z,30.14
2023-03-12T21:56:26.513Z,30.12
2023-03-12T22:00:26.505Z,30.15
2023-03-12T22:04:26.673Z,30.14
2023-03-12T22:08:26.685Z,30.14
2023-03-12T22:12:26.760Z,30.17
2023-03-12T22:16:26.834Z,30.16
2023-03-12T22:20:26.928Z,30.16
2023-03-12T22:24:26.973Z,30.17
2023-03-12T22:28:27.048Z,30.17
2023-03-12T22:32:27.140Z,30.18
2023-03-12T22:36:27.182Z,30.19
2023-03-12T22:40:27.255Z,30.19
2023-03-12T22:44:27.354Z,30.20
2023-03-12T22:48:27.430Z,30.20
2023-03-12T22:52:27.494Z,30.22
2023-03-12T22:56:27.561Z,30.22
2023-03-12T23:00:27.664Z,30.23
2023-03-12T23:04:27.791Z,30.24
2023-03-12T23:08:27.851Z,30.26
2023-03-12T23:12:27.959Z,30.25
2023-03-12T23:16:28.096Z,30.26
2023-03-12T23:20:28.104Z,30.27
2023-03-12T23:24:28.208Z,30.30
2023-03-12T23:28:28.325Z,30.29
2023-03-12T23:32:28.487Z,30.31
2023-03-12T23:36:28.532Z,30.28
2023-03-12T23:40:28.631Z,30.30
2023-03-12T23:44:28.712Z,30.29
2023-03-12T23:48:28.787Z,30.29
2023-03-12T23:52:29.317Z,30.29
2023-03-12T23:56:28.959Z,30.29
